»·PEaware :: RIPPER01 KSPS-KSPS

RIPPER01 :: KSPS-KSPS

FLIGHT INFORMATION

Flight Status: Arrived
Operator: Unknown
More flights by this operator :: More flights under this callsign
Pilot: 80 FTW ENJJPT (22981)
Aircraft: BEECH AIRCRAFT T-6A TEXAN
(TEX2)
More flights by this aircraft type
Origin: KSPS Sheppard AFB/Wichita Falls Mu
United States
Destination: KSPS Sheppard AFB/Wichita Falls Mu
United States
More flights between these airports :: More routes between these airports
Route: +
File this flight plan on PilotEdge
Remarks:
Altitude:
(Current/Filed)
0ft
Speed:
(Current/Filed)
0kts
Departed: 03-Jun-20 10:55 AM
Arrived: 03-Jun-20 11:51 AM
Distance/Time
Traveled:
1nm/0:56
Distance/Time
To Go:
Arrived

Flight Plot

Page will automatically refresh every two minutes.

Flight plan parsing failed; only flown route is shown


Map Options




Map Legend


Flown Route
Filed Route
Departure Airport
Arrival Airport
Navaid (VOR, NDB)
Fix

Horizontal Profiles

Position Reports

Time Latitude Longitude Heading Altitude Ground
Speed
03-Jun-20 10:53 34.028782 -98.424309 3 5024ft 176kts
03-Jun-20 10:54 34.076800 -98.432297 325 5020ft 179kts
03-Jun-20 10:55 34.108799 -98.479049 307 5149ft 185kts
03-Jun-20 10:56 34.139956 -98.530750 306 5182ft 198kts
03-Jun-20 10:57 34.158977 -98.523583 77 5844ft 173kts
03-Jun-20 10:58 34.188618 -98.496751 57 4980ft 217kts
03-Jun-20 10:59 34.220036 -98.539086 298 5147ft 199kts
03-Jun-20 11:00 34.237599 -98.603167 262 4654ft 215kts
03-Jun-20 11:01 34.234517 -98.672596 272 4189ft 198kts
03-Jun-20 11:02 34.200611 -98.701088 169 4184ft 218kts
03-Jun-20 11:03 34.162664 -98.666603 80 4185ft 230kts
03-Jun-20 11:04 34.188219 -98.674472 205 3980ft 192kts
03-Jun-20 11:05 34.188151 -98.641452 339 4723ft 216kts
03-Jun-20 11:06 34.171294 -98.688732 179 4951ft 219kts
03-Jun-20 11:07 34.161395 -98.636609 30 4886ft 224kts
03-Jun-20 11:08 34.212032 -98.665700 315 5473ft 227kts
03-Jun-20 11:09 34.233761 -98.683948 187 6784ft 133kts
03-Jun-20 11:10 34.222537 -98.681653 87 4526ft 203kts
03-Jun-20 11:11 34.220424 -98.679280 16 7768ft 103kts
03-Jun-20 11:12 34.235590 -98.692557 35 8014ft 178kts
03-Jun-20 11:13 34.262633 -98.672873 15 6412ft 214kts
03-Jun-20 11:14 34.255952 -98.708358 180 6307ft 201kts
03-Jun-20 11:15 34.221495 -98.657835 113 5658ft 207kts
03-Jun-20 11:16 34.198464 -98.587805 105 5611ft 224kts
03-Jun-20 11:17 34.181880 -98.514604 99 5688ft 221kts
03-Jun-20 11:18 34.175237 -98.441497 87 5550ft 212kts
03-Jun-20 11:19 34.177862 -98.366274 89 5708ft 221kts
03-Jun-20 11:20 34.174847 -98.294630 81 5752ft 214kts
03-Jun-20 11:21 34.224599 -98.298997 273 5449ft 229kts
03-Jun-20 11:22 34.222355 -98.371329 263 5561ft 221kts
03-Jun-20 11:23 34.228738 -98.439101 195 5247ft 237kts
03-Jun-20 11:24 34.228657 -98.434761 23 4572ft 196kts
03-Jun-20 11:25 34.234479 -98.437402 198 3379ft 229kts
03-Jun-20 11:26 34.254696 -98.404551 41 4526ft 213kts
03-Jun-20 11:27 34.264678 -98.428787 181 3988ft 220kts
03-Jun-20 11:28 34.270607 -98.391895 339 3667ft 191kts
03-Jun-20 11:29 34.321536 -98.423618 338 3288ft 209kts
03-Jun-20 11:30 34.342056 -98.468569 232 3218ft 200kts
03-Jun-20 11:31 34.294818 -98.481098 144 3181ft 229kts
03-Jun-20 11:32 34.233232 -98.469789 213 3694ft 267kts
03-Jun-20 11:33 34.176616 -98.514483 294 2028ft 247kts
03-Jun-20 11:34 34.179183 -98.482251 209 1881ft 187kts
03-Jun-20 11:35 34.127302 -98.518757 199 1774ft 215kts
03-Jun-20 11:36 34.066233 -98.520110 160 1793ft 227kts
03-Jun-20 11:37 34.008846 -98.491393 158 1801ft 224kts
03-Jun-20 11:38 34.022156 -98.482891 337 2194ft 106kts
03-Jun-20 11:39 34.005232 -98.490418 155 1057ft 112kts
03-Jun-20 11:41 34.006003 -98.477218 339 2043ft 140kts
03-Jun-20 11:42 34.021667 -98.496606 190 1318ft 109kts
03-Jun-20 11:43 33.987931 -98.481473 145 1440ft 187kts
03-Jun-20 11:44 34.024403 -98.471558 349 4297ft 182kts
03-Jun-20 11:45 34.023254 -98.498594 161 4235ft 160kts
03-Jun-20 11:46 34.000814 -98.473197 29 3601ft 129kts
03-Jun-20 11:47 34.022850 -98.494199 223 1704ft 132kts
03-Jun-20 11:48 33.991836 -98.478221 68 1766ft 159kts
03-Jun-20 11:49 34.022558 -98.495506 228 1513ft 126kts
03-Jun-20 11:50 33.999970 -98.487912 159 1023ft 61kts
03-Jun-20 11:51 33.991916 -98.487381 182 1023ft 33kts
03-Jun-20 11:52 33.986933 -98.492922 245 1023ft 28kts
03-Jun-20 11:53 33.993977 -98.498678 339 1023ft 32kts
03-Jun-20 11:54 33.996491 -98.501691 340 1023ft 0kts

Navigation Log

Ident Type
Flight plan parsing failed, navigation log unavailable